Hlavní strana
METAR-TAF:

METAR-TAF

Letiště :

Trollhättan-Vänersborg, Švédsko

zeměpisná šířka: 58-19N, zeměpisná délka: 012-21E, výška: 41 m

Aktuální stav počasí

Zpráva byla vytvořena před 21 minutami, v 11:50 UTC
Východní vítr 12 kt, proměnlivý mezi východoseverovýchodním a jihovýchodním
Teplota 19°C
Vlhkost vzduchu 22%
Tlak 1022 hPa
Viditelnost 10 km a více
Žádná oblačnost pod 1500 m, nevyskytují se cumulonimby.

METAR: ESGT 231150Z 10012KT 070V140 CAVOK 19/M03 Q1022

Čas: 14:11 (12:11 UTC)

Předpověď počasí

Zpráva byla vytvořena před 41 minutami, v 11:30 UTC
Předpověď platná od 23 v 12 UTC do 23 v 17 UTC
Východojihovýchodní vítr 15 kt s nárazy do 25 kt
Viditelnost 10 km a více
Žádná oblačnost pod 1500 m, nevyskytují se cumulonimby.

TAF: ESGT 231130Z 2312/2317 12015G25KT CAVOK

Stav a předpovědi počasí z více než 4 000 letišť (zprávy METAR a TAF).

Červené a žluté tečky na mapě představují dostupné meteorologické stanice.

Když kurzor umístíte na tečku, zobrazí se název stanice.

Pak kliknutím zobrazíte stav a předpověď počasí.

Chcete-li změnit mapu, kliknutím na zelené tlačítko se znaménkem +mapu přiblížíte, kliknutím na zelené tlačítko se znaménkem – mapu oddálíte a kliknutím na zelené šipky přejdete na sousední mapy.


METAR-TAF: